sensor_id;sensor_type;location;lat;lon;timestamp;temperature;humidity
4757;DHT22;2392;52.578;13.426;2023-05-01T00:01:50;8.30;99.60
4757;DHT22;2392;52.578;13.426;2023-05-01T00:04:17;8.20;99.90
4757;DHT22;2392;52.578;13.426;2023-05-01T00:06:46;8.10;99.90
4757;DHT22;2392;52.578;13.426;2023-05-01T00:09:14;8.10;99.90
4757;DHT22;2392;52.578;13.426;2023-05-01T00:11:41;8.00;99.90
4757;DHT22;2392;52.578;13.426;2023-05-01T00:14:08;7.90;99.90
4757;DHT22;2392;52.578;13.426;2023-05-01T00:16:36;7.90;99.90
4757;DHT22;2392;52.578;13.426;2023-05-01T00:19:03;7.90;99.90
4757;DHT22;2392;52.578;13.426;2023-05-01T00:21:30;7.90;99.90
4757;DHT22;2392;52.578;13.426;2023-05-01T00:23:57;7.90;99.90
4757;DHT22;2392;52.578;13.426;2023-05-01T00:26:25;7.90;99.90
4757;DHT22;2392;52.578;13.426;2023-05-01T00:28:56;7.90;99.90
4757;DHT22;2392;52.578;13.426;2023-05-01T00:31:23;7.90;99.90
4757;DHT22;2392;52.578;13.426;2023-05-01T00:33:51;7.80;99.90
4757;DHT22;2392;52.578;13.426;2023-05-01T00:36:18;7.80;99.90
4757;DHT22;2392;52.578;13.426;2023-05-01T00:38:45;7.70;99.90
4757;DHT22;2392;52.578;13.426;2023-05-01T00:41:12;7.70;99.90
4757;DHT22;2392;52.578;13.426;2023-05-01T00:43:41;7.70;99.90
4757;DHT22;2392;52.578;13.426;2023-05-01T00:46:08;7.70;99.90
4757;DHT22;2392;52.578;13.426;2023-05-01T00:48:35;7.70;99.90
4757;DHT22;2392;52.578;13.426;2023-05-01T00:51:04;7.60;99.90
4757;DHT22;2392;52.578;13.426;2023-05-01T00:53:32;7.60;99.90
4757;DHT22;2392;52.578;13.426;2023-05-01T00:55:59;7.60;99.90
4757;DHT22;2392;52.578;13.426;2023-05-01T00:58:27;7.60;99.90
4757;DHT22;2392;52.578;13.426;2023-05-01T01:00:56;7.60;99.90
4757;DHT22;2392;52.578;13.426;2023-05-01T01:03:23;7.60;99.90
4757;DHT22;2392;52.578;13.426;2023-05-01T01:05:53;7.60;99.90
4757;DHT22;2392;52.578;13.426;2023-05-01T01:08:27;7.50;99.90
4757;DHT22;2392;52.578;13.426;2023-05-01T01:11:00;7.50;99.90
4757;DHT22;2392;52.578;13.426;2023-05-01T01:13:38;7.50;99.90
4757;DHT22;2392;52.578;13.426;2023-05-01T01:16:12;7.50;99.90
4757;DHT22;2392;52.578;13.426;2023-05-01T01:18:49;7.50;99.90
4757;DHT22;2392;52.578;13.426;2023-05-01T01:21:22;7.50;99.90
4757;DHT22;2392;52.578;13.426;2023-05-01T01:30:34;7.40;99.90
4757;DHT22;2392;52.578;13.426;2023-05-01T01:33:41;7.40;99.90
4757;DHT22;2392;52.578;13.426;2023-05-01T01:36:17;7.40;99.90
4757;DHT22;2392;52.578;13.426;2023-05-01T01:38:57;7.40;99.90
4757;DHT22;2392;52.578;13.426;2023-05-01T01:41:30;7.30;99.90
4757;DHT22;2392;52.578;13.426;2023-05-01T01:44:03;7.30;99.90
4757;DHT22;2392;52.578;13.426;2023-05-01T01:46:35;7.20;99.90
4757;DHT22;2392;52.578;13.426;2023-05-01T01:49:08;7.20;99.90
4757;DHT22;2392;52.578;13.426;2023-05-01T01:51:39;7.20;99.90
4757;DHT22;2392;52.578;13.426;2023-05-01T01:54:08;7.20;99.90
4757;DHT22;2392;52.578;13.426;2023-05-01T01:56:39;7.10;99.90
4757;DHT22;2392;52.578;13.426;2023-05-01T01:59:09;7.10;99.90
4757;DHT22;2392;52.578;13.426;2023-05-01T02:01:38;7.00;99.90
4757;DHT22;2392;52.578;13.426;2023-05-01T02:04:07;7.00;99.90
4757;DHT22;2392;52.578;13.426;2023-05-01T02:06:37;7.00;99.90
4757;DHT22;2392;52.578;13.426;2023-05-01T02:09:07;7.00;99.90
4757;DHT22;2392;52.578;13.426;2023-05-01T02:11:36;6.90;99.90
4757;DHT22;2392;52.578;13.426;2023-05-01T02:14:04;6.90;99.90
4757;DHT22;2392;52.578;13.426;2023-05-01T02:16:34;6.80;99.90
4757;DHT22;2392;52.578;13.426;2023-05-01T02:19:03;6.80;99.90
4757;DHT22;2392;52.578;13.426;2023-05-01T02:21:33;6.70;99.90
4757;DHT22;2392;52.578;13.426;2023-05-01T02:24:01;6.70;99.90
4757;DHT22;2392;52.578;13.426;2023-05-01T02:26:33;6.70;99.90
4757;DHT22;2392;52.578;13.426;2023-05-01T02:29:04;6.70;99.90
4757;DHT22;2392;52.578;13.426;2023-05-01T02:31:33;6.70;99.90
4757;DHT22;2392;52.578;13.426;2023-05-01T02:34:03;6.70;99.90
4757;DHT22;2392;52.578;13.426;2023-05-01T02:36:32;6.60;99.90
4757;DHT22;2392;52.578;13.426;2023-05-01T02:38:59;6.60;99.90
4757;DHT22;2392;52.578;13.426;2023-05-01T02:41:27;6.60;99.90
4757;DHT22;2392;52.578;13.426;2023-05-01T02:44:00;6.60;99.90
4757;DHT22;2392;52.578;13.426;2023-05-01T02:46:30;6.60;99.90
4757;DHT22;2392;52.578;13.426;2023-05-01T02:49:00;6.60;99.90
4757;DHT22;2392;52.578;13.426;2023-05-01T02:51:29;6.50;99.90
4757;DHT22;2392;52.578;13.426;2023-05-01T02:53:58;6.50;99.90
4757;DHT22;2392;52.578;13.426;2023-05-01T02:56:25;6.50;99.90
4757;DHT22;2392;52.578;13.426;2023-05-01T02:58:53;6.50;99.90
4757;DHT22;2392;52.578;13.426;2023-05-01T03:01:20;6.50;99.90
4757;DHT22;2392;52.578;13.426;2023-05-01T03:03:47;6.50;99.90
4757;DHT22;2392;52.578;13.426;2023-05-01T03:06:15;6.50;99.90
4757;DHT22;2392;52.578;13.426;2023-05-01T03:08:43;6.50;99.90
4757;DHT22;2392;52.578;13.426;2023-05-01T03:11:13;6.50;99.90
4757;DHT22;2392;52.578;13.426;2023-05-01T03:13:40;6.50;99.90
4757;DHT22;2392;52.578;13.426;2023-05-01T03:16:08;6.50;99.90
4757;DHT22;2392;52.578;13.426;2023-05-01T03:18:38;6.50;99.90
4757;DHT22;2392;52.578;13.426;2023-05-01T03:21:05;6.50;99.90
4757;DHT22;2392;52.578;13.426;2023-05-01T03:23:32;6.50;99.90
4757;DHT22;2392;52.578;13.426;2023-05-01T03:25:59;6.50;99.90
4757;DHT22;2392;52.578;13.426;2023-05-01T03:28:29;6.50;99.90
4757;DHT22;2392;52.578;13.426;2023-05-01T03:30:57;6.50;99.90
4757;DHT22;2392;52.578;13.426;2023-05-01T03:33:24;6.50;99.90
4757;DHT22;2392;52.578;13.426;2023-05-01T03:35:58;6.50;99.90
4757;DHT22;2392;52.578;13.426;2023-05-01T03:38:26;6.50;99.90
4757;DHT22;2392;52.578;13.426;2023-05-01T03:41:08;6.40;99.90
4757;DHT22;2392;52.578;13.426;2023-05-01T03:43:50;6.40;99.90
4757;DHT22;2392;52.578;13.426;2023-05-01T03:46:37;6.50;99.90
4757;DHT22;2392;52.578;13.426;2023-05-01T03:49:06;6.40;99.90
4757;DHT22;2392;52.578;13.426;2023-05-01T03:51:39;6.40;99.90
4757;DHT22;2392;52.578;13.426;2023-05-01T03:54:06;6.40;99.90
4757;DHT22;2392;52.578;13.426;2023-05-01T03:56:49;6.40;99.90
4757;DHT22;2392;52.578;13.426;2023-05-01T03:59:19;6.40;99.90
4757;DHT22;2392;52.578;13.426;2023-05-01T04:01:46;6.40;99.90
4757;DHT22;2392;52.578;13.426;2023-05-01T04:04:13;6.40;99.90
4757;DHT22;2392;52.578;13.426;2023-05-01T04:06:46;6.40;99.90
4757;DHT22;2392;52.578;13.426;2023-05-01T04:09:13;6.40;99.90
4757;DHT22;2392;52.578;13.426;2023-05-01T04:11:40;6.30;99.90
4757;DHT22;2392;52.578;13.426;2023-05-01T04:14:07;6.30;99.90
4757;DHT22;2392;52.578;13.426;2023-05-01T04:16:36;6.30;99.90
4757;DHT22;2392;52.578;13.426;2023-05-01T04:19:03;6.30;99.90
4757;DHT22;2392;52.578;13.426;2023-05-01T04:21:33;6.30;99.90
4757;DHT22;2392;52.578;13.426;2023-05-01T04:24:00;6.30;99.90
4757;DHT22;2392;52.578;13.426;2023-05-01T04:26:27;6.30;99.90
4757;DHT22;2392;52.578;13.426;2023-05-01T04:28:54;6.30;99.90
4757;DHT22;2392;52.578;13.426;2023-05-01T04:31:25;6.30;99.90
4757;DHT22;2392;52.578;13.426;2023-05-01T04:33:53;6.40;99.90
4757;DHT22;2392;52.578;13.426;2023-05-01T04:36:21;6.40;99.90
4757;DHT22;2392;52.578;13.426;2023-05-01T04:38:48;6.40;99.90
4757;DHT22;2392;52.578;13.426;2023-05-01T04:41:16;6.40;99.90
4757;DHT22;2392;52.578;13.426;2023-05-01T04:43:44;6.40;99.90
4757;DHT22;2392;52.578;13.426;2023-05-01T04:46:15;6.50;99.90
4757;DHT22;2392;52.578;13.426;2023-05-01T04:48:42;6.50;99.90
4757;DHT22;2392;52.578;13.426;2023-05-01T04:51:13;6.50;99.90
4757;DHT22;2392;52.578;13.426;2023-05-01T04:53:42;6.60;99.90
4757;DHT22;2392;52.578;13.426;2023-05-01T04:56:19;6.60;99.90
4757;DHT22;2392;52.578;13.426;2023-05-01T04:58:49;6.70;99.90
4757;DHT22;2392;52.578;13.426;2023-05-01T05:01:23;6.70;99.90
4757;DHT22;2392;52.578;13.426;2023-05-01T05:03:50;6.80;99.90
4757;DHT22;2392;52.578;13.426;2023-05-01T05:06:18;6.80;99.90
4757;DHT22;2392;52.578;13.426;2023-05-01T05:08:45;6.90;99.90
4757;DHT22;2392;52.578;13.426;2023-05-01T05:11:12;6.90;99.90
4757;DHT22;2392;52.578;13.426;2023-05-01T05:13:45;7.00;99.90
4757;DHT22;2392;52.578;13.426;2023-05-01T05:16:12;7.00;99.90
4757;DHT22;2392;52.578;13.426;2023-05-01T05:18:40;7.10;99.90
4757;DHT22;2392;52.578;13.426;2023-05-01T05:21:08;7.20;99.90
4757;DHT22;2392;52.578;13.426;2023-05-01T05:23:37;7.30;99.90
4757;DHT22;2392;52.578;13.426;2023-05-01T05:26:07;7.30;99.90
4757;DHT22;2392;52.578;13.426;2023-05-01T05:28:34;7.40;99.90
4757;DHT22;2392;52.578;13.426;2023-05-01T05:31:04;7.50;99.90
4757;DHT22;2392;52.578;13.426;2023-05-01T05:33:31;7.60;99.90
4757;DHT22;2392;52.578;13.426;2023-05-01T05:35:58;7.70;99.90
4757;DHT22;2392;52.578;13.426;2023-05-01T05:38:30;7.80;99.90
4757;DHT22;2392;52.578;13.426;2023-05-01T05:40:59;7.90;99.90
4757;DHT22;2392;52.578;13.426;2023-05-01T05:43:27;8.00;99.90
4757;DHT22;2392;52.578;13.426;2023-05-01T05:45:58;8.10;99.90
4757;DHT22;2392;52.578;13.426;2023-05-01T05:48:28;8.20;99.90
4757;DHT22;2392;52.578;13.426;2023-05-01T05:50:56;8.30;99.90
4757;DHT22;2392;52.578;13.426;2023-05-01T05:53:23;8.30;99.90
4757;DHT22;2392;52.578;13.426;2023-05-01T05:55:51;8.40;99.90
4757;DHT22;2392;52.578;13.426;2023-05-01T05:58:19;8.50;99.90
4757;DHT22;2392;52.578;13.426;2023-05-01T06:00:48;8.60;99.90
4757;DHT22;2392;52.578;13.426;2023-05-01T06:03:15;8.70;99.90
4757;DHT22;2392;52.578;13.426;2023-05-01T06:05:43;8.80;99.90
4757;DHT22;2392;52.578;13.426;2023-05-01T06:08:11;8.90;99.90
4757;DHT22;2392;52.578;13.426;2023-05-01T06:10:41;9.00;99.90
4757;DHT22;2392;52.578;13.426;2023-05-01T06:13:10;9.10;99.90
4757;DHT22;2392;52.578;13.426;2023-05-01T06:15:40;9.20;99.90
4757;DHT22;2392;52.578;13.426;2023-05-01T06:18:08;9.40;99.90
4757;DHT22;2392;52.578;13.426;2023-05-01T06:20:36;9.50;99.90
4757;DHT22;2392;52.578;13.426;2023-05-01T06:23:04;9.60;99.90
4757;DHT22;2392;52.578;13.426;2023-05-01T06:26:02;9.70;99.90
4757;DHT22;2392;52.578;13.426;2023-05-01T06:28:29;9.80;99.90
4757;DHT22;2392;52.578;13.426;2023-05-01T06:30:58;9.90;99.90
4757;DHT22;2392;52.578;13.426;2023-05-01T06:33:26;10.00;99.90
4757;DHT22;2392;52.578;13.426;2023-05-01T06:36:03;10.10;99.90
4757;DHT22;2392;52.578;13.426;2023-05-01T06:38:30;10.20;99.90
4757;DHT22;2392;52.578;13.426;2023-05-01T06:40:58;10.20;99.90
4757;DHT22;2392;52.578;13.426;2023-05-01T06:43:25;10.30;99.90
4757;DHT22;2392;52.578;13.426;2023-05-01T06:45:55;10.40;99.90
4757;DHT22;2392;52.578;13.426;2023-05-01T06:48:23;10.50;99.90
4757;DHT22;2392;52.578;13.426;2023-05-01T06:50:50;10.50;99.90
4757;DHT22;2392;52.578;13.426;2023-05-01T06:53:18;10.60;99.90
4757;DHT22;2392;52.578;13.426;2023-05-01T06:55:45;10.60;99.90
4757;DHT22;2392;52.578;13.426;2023-05-01T06:58:12;10.70;99.90
4757;DHT22;2392;52.578;13.426;2023-05-01T07:00:39;10.80;99.90
4757;DHT22;2392;52.578;13.426;2023-05-01T07:03:06;10.90;99.90
4757;DHT22;2392;52.578;13.426;2023-05-01T07:05:35;11.00;99.50
4757;DHT22;2392;52.578;13.426;2023-05-01T07:08:02;11.00;99.50
4757;DHT22;2392;52.578;13.426;2023-05-01T07:10:29;11.10;99.50
4757;DHT22;2392;52.578;13.426;2023-05-01T07:12:55;11.30;99.50
4757;DHT22;2392;52.578;13.426;2023-05-01T07:15:22;11.40;99.30
4757;DHT22;2392;52.578;13.426;2023-05-01T07:17:49;11.50;99.30
4757;DHT22;2392;52.578;13.426;2023-05-01T07:20:16;11.60;98.70
4757;DHT22;2392;52.578;13.426;2023-05-01T07:22:45;11.70;98.10
4757;DHT22;2392;52.578;13.426;2023-05-01T07:25:12;11.80;97.90
4757;DHT22;2392;52.578;13.426;2023-05-01T07:27:39;11.90;97.80
4757;DHT22;2392;52.578;13.426;2023-05-01T07:30:07;12.00;98.50
4757;DHT22;2392;52.578;13.426;2023-05-01T07:32:34;12.10;97.10
4757;DHT22;2392;52.578;13.426;2023-05-01T07:35:01;12.10;96.90
4757;DHT22;2392;52.578;13.426;2023-05-01T07:37:29;12.20;96.50
4757;DHT22;2392;52.578;13.426;2023-05-01T07:39:57;12.20;96.00
4757;DHT22;2392;52.578;13.426;2023-05-01T07:42:25;12.30;96.40
4757;DHT22;2392;52.578;13.426;2023-05-01T07:44:52;12.40;96.70
4757;DHT22;2392;52.578;13.426;2023-05-01T07:47:19;12.50;96.60
4757;DHT22;2392;52.578;13.426;2023-05-01T07:49:46;12.60;96.90
4757;DHT22;2392;52.578;13.426;2023-05-01T07:52:14;12.80;95.80
4757;DHT22;2392;52.578;13.426;2023-05-01T07:54:41;12.90;95.70
4757;DHT22;2392;52.578;13.426;2023-05-01T07:57:09;13.00;95.00
4757;DHT22;2392;52.578;13.426;2023-05-01T07:59:36;13.00;94.60
4757;DHT22;2392;52.578;13.426;2023-05-01T08:02:03;13.00;94.40
4757;DHT22;2392;52.578;13.426;2023-05-01T08:04:30;13.10;95.00
4757;DHT22;2392;52.578;13.426;2023-05-01T08:06:57;13.20;95.00
4757;DHT22;2392;52.578;13.426;2023-05-01T08:09:24;13.30;95.20
4757;DHT22;2392;52.578;13.426;2023-05-01T08:11:51;13.50;94.60
4757;DHT22;2392;52.578;13.426;2023-05-01T08:14:19;13.60;95.10
4757;DHT22;2392;52.578;13.426;2023-05-01T08:16:46;13.70;94.90
4757;DHT22;2392;52.578;13.426;2023-05-01T08:19:18;13.80;94.50
4757;DHT22;2392;52.578;13.426;2023-05-01T08:21:45;13.90;94.20
4757;DHT22;2392;52.578;13.426;2023-05-01T08:24:12;14.00;94.20
4757;DHT22;2392;52.578;13.426;2023-05-01T08:26:39;14.10;93.60
4757;DHT22;2392;52.578;13.426;2023-05-01T08:29:06;14.20;93.00
4757;DHT22;2392;52.578;13.426;2023-05-01T08:31:35;14.30;92.20
4757;DHT22;2392;52.578;13.426;2023-05-01T08:34:02;14.20;91.80
4757;DHT22;2392;52.578;13.426;2023-05-01T08:36:29;14.30;92.20
4757;DHT22;2392;52.578;13.426;2023-05-01T08:38:57;14.40;93.10
4757;DHT22;2392;52.578;13.426;2023-05-01T08:41:26;14.50;92.50
4757;DHT22;2392;52.578;13.426;2023-05-01T08:43:55;14.60;92.80
4757;DHT22;2392;52.578;13.426;2023-05-01T08:46:28;14.80;91.70
4757;DHT22;2392;52.578;13.426;2023-05-01T08:48:59;14.90;90.90
4757;DHT22;2392;52.578;13.426;2023-05-01T08:51:27;15.00;91.30
4757;DHT22;2392;52.578;13.426;2023-05-01T08:53:57;15.10;90.90
4757;DHT22;2392;52.578;13.426;2023-05-01T08:56:25;15.20;90.80
4757;DHT22;2392;52.578;13.426;2023-05-01T08:58:52;15.30;89.80
4757;DHT22;2392;52.578;13.426;2023-05-01T09:01:21;15.30;88.60
4757;DHT22;2392;52.578;13.426;2023-05-01T09:03:50;15.30;87.80
4757;DHT22;2392;52.578;13.426;2023-05-01T09:06:20;15.40;89.20
4757;DHT22;2392;52.578;13.426;2023-05-01T09:08:48;15.50;89.60
4757;DHT22;2392;52.578;13.426;2023-05-01T09:11:15;15.60;88.20
4757;DHT22;2392;52.578;13.426;2023-05-01T09:13:42;15.70;87.60
4757;DHT22;2392;52.578;13.426;2023-05-01T09:16:09;15.80;87.40
4757;DHT22;2392;52.578;13.426;2023-05-01T09:18:36;15.90;87.30
4757;DHT22;2392;52.578;13.426;2023-05-01T09:21:03;16.10;87.00
4757;DHT22;2392;52.578;13.426;2023-05-01T09:23:33;16.20;87.00
4757;DHT22;2392;52.578;13.426;2023-05-01T09:26:03;16.30;86.60
4757;DHT22;2392;52.578;13.426;2023-05-01T09:28:41;16.40;82.70
4757;DHT22;2392;52.578;13.426;2023-05-01T09:31:22;16.30;83.00
4757;DHT22;2392;52.578;13.426;2023-05-01T09:33:53;16.40;83.60
4757;DHT22;2392;52.578;13.426;2023-05-01T09:36:20;16.50;83.50
4757;DHT22;2392;52.578;13.426;2023-05-01T09:38:49;16.60;81.80
4757;DHT22;2392;52.578;13.426;2023-05-01T09:41:18;16.70;83.30
4757;DHT22;2392;52.578;13.426;2023-05-01T09:43:51;16.90;83.40
4757;DHT22;2392;52.578;13.426;2023-05-01T09:46:21;17.00;84.10
4757;DHT22;2392;52.578;13.426;2023-05-01T09:48:56;17.20;81.60
4757;DHT22;2392;52.578;13.426;2023-05-01T09:51:25;17.20;79.20
4757;DHT22;2392;52.578;13.426;2023-05-01T09:53:55;17.30;78.80
4757;DHT22;2392;52.578;13.426;2023-05-01T09:56:22;17.40;78.50
4757;DHT22;2392;52.578;13.426;2023-05-01T09:58:50;17.50;80.40
4757;DHT22;2392;52.578;13.426;2023-05-01T10:01:18;17.60;78.50
4757;DHT22;2392;52.578;13.426;2023-05-01T10:03:45;17.70;80.70
4757;DHT22;2392;52.578;13.426;2023-05-01T10:06:26;17.90;80.20
4757;DHT22;2392;52.578;13.426;2023-05-01T10:08:55;18.50;79.40
4757;DHT22;2392;52.578;13.426;2023-05-01T10:11:22;19.20;79.00
4757;DHT22;2392;52.578;13.426;2023-05-01T10:14:05;20.00;77.50
4757;DHT22;2392;52.578;13.426;2023-05-01T10:16:34;21.30;75.10
4757;DHT22;2392;52.578;13.426;2023-05-01T10:19:02;22.40;77.10
4757;DHT22;2392;52.578;13.426;2023-05-01T10:21:29;23.50;72.20
4757;DHT22;2392;52.578;13.426;2023-05-01T10:24:00;24.50;69.60
4757;DHT22;2392;52.578;13.426;2023-05-01T10:26:28;25.40;62.30
4757;DHT22;2392;52.578;13.426;2023-05-01T10:28:55;25.70;61.30
4757;DHT22;2392;52.578;13.426;2023-05-01T10:31:24;26.00;59.50
4757;DHT22;2392;52.578;13.426;2023-05-01T10:33:53;26.80;60.40
4757;DHT22;2392;52.578;13.426;2023-05-01T10:36:23;27.50;55.70
4757;DHT22;2392;52.578;13.426;2023-05-01T10:38:51;27.00;53.50
4757;DHT22;2392;52.578;13.426;2023-05-01T10:42:00;27.10;55.60
4757;DHT22;2392;52.578;13.426;2023-05-01T10:44:28;28.30;56.20
4757;DHT22;2392;52.578;13.426;2023-05-01T10:46:55;29.40;52.10
4757;DHT22;2392;52.578;13.426;2023-05-01T10:49:22;29.70;50.00
4757;DHT22;2392;52.578;13.426;2023-05-01T10:51:59;29.50;50.80
4757;DHT22;2392;52.578;13.426;2023-05-01T10:54:28;30.10;50.00
4757;DHT22;2392;52.578;13.426;2023-05-01T10:56:59;30.50;50.60
4757;DHT22;2392;52.578;13.426;2023-05-01T10:59:27;30.20;46.70
4757;DHT22;2392;52.578;13.426;2023-05-01T11:01:54;29.40;47.10
4757;DHT22;2392;52.578;13.426;2023-05-01T11:04:46;28.80;47.20
4757;DHT22;2392;52.578;13.426;2023-05-01T11:07:20;28.40;47.80
4757;DHT22;2392;52.578;13.426;2023-05-01T11:09:50;28.40;49.30
4757;DHT22;2392;52.578;13.426;2023-05-01T11:12:49;29.30;48.20
4757;DHT22;2392;52.578;13.426;2023-05-01T11:15:26;29.90;48.60
4757;DHT22;2392;52.578;13.426;2023-05-01T11:17:53;30.20;46.80
4757;DHT22;2392;52.578;13.426;2023-05-01T11:20:45;30.50;46.90
4757;DHT22;2392;52.578;13.426;2023-05-01T11:23:18;30.70;46.70
4757;DHT22;2392;52.578;13.426;2023-05-01T11:25:48;29.50;44.70
4757;DHT22;2392;52.578;13.426;2023-05-01T11:28:20;27.80;45.70
4757;DHT22;2392;52.578;13.426;2023-05-01T11:30:48;26.30;48.40
4757;DHT22;2392;52.578;13.426;2023-05-01T11:33:24;25.10;48.70
4757;DHT22;2392;52.578;13.426;2023-05-01T11:35:59;23.90;49.80
4757;DHT22;2392;52.578;13.426;2023-05-01T11:38:27;23.20;51.50
4757;DHT22;2392;52.578;13.426;2023-05-01T11:40:57;22.90;53.10
4757;DHT22;2392;52.578;13.426;2023-05-01T11:43:26;22.70;53.00
4757;DHT22;2392;52.578;13.426;2023-05-01T11:45:53;22.30;53.10
4757;DHT22;2392;52.578;13.426;2023-05-01T11:48:28;22.30;54.00
4757;DHT22;2392;52.578;13.426;2023-05-01T11:50:55;22.20;54.40
4757;DHT22;2392;52.578;13.426;2023-05-01T11:53:22;22.00;55.20
4757;DHT22;2392;52.578;13.426;2023-05-01T11:55:49;21.90;55.80
4757;DHT22;2392;52.578;13.426;2023-05-01T11:58:17;22.10;56.60
4757;DHT22;2392;52.578;13.426;2023-05-01T12:00:57;22.30;57.20
4757;DHT22;2392;52.578;13.426;2023-05-01T12:03:24;22.50;55.80
4757;DHT22;2392;52.578;13.426;2023-05-01T12:05:51;22.70;56.10
4757;DHT22;2392;52.578;13.426;2023-05-01T12:08:19;22.80;55.80
4757;DHT22;2392;52.578;13.426;2023-05-01T12:10:50;22.70;54.80
4757;DHT22;2392;52.578;13.426;2023-05-01T12:13:18;22.60;56.50
4757;DHT22;2392;52.578;13.426;2023-05-01T12:15:46;22.60;54.20
4757;DHT22;2392;52.578;13.426;2023-05-01T12:18:19;22.60;55.40
4757;DHT22;2392;52.578;13.426;2023-05-01T12:20:51;22.60;54.80
4757;DHT22;2392;52.578;13.426;2023-05-01T12:23:30;22.80;56.00
4757;DHT22;2392;52.578;13.426;2023-05-01T12:25:58;23.00;53.70
4757;DHT22;2392;52.578;13.426;2023-05-01T12:28:25;23.10;53.60
4757;DHT22;2392;52.578;13.426;2023-05-01T12:30:52;23.10;53.80
4757;DHT22;2392;52.578;13.426;2023-05-01T12:33:23;23.20;55.20
4757;DHT22;2392;52.578;13.426;2023-05-01T12:35:51;23.20;53.60
4757;DHT22;2392;52.578;13.426;2023-05-01T12:38:19;23.40;54.50
4757;DHT22;2392;52.578;13.426;2023-05-01T12:40:51;23.50;55.30
4757;DHT22;2392;52.578;13.426;2023-05-01T12:43:20;23.40;54.50
4757;DHT22;2392;52.578;13.426;2023-05-01T12:45:51;23.00;52.30
4757;DHT22;2392;52.578;13.426;2023-05-01T12:48:19;22.80;53.30
4757;DHT22;2392;52.578;13.426;2023-05-01T12:50:47;22.60;52.60
4757;DHT22;2392;52.578;13.426;2023-05-01T12:53:19;22.50;52.80
4757;DHT22;2392;52.578;13.426;2023-05-01T12:55:47;22.30;54.20
4757;DHT22;2392;52.578;13.426;2023-05-01T12:58:15;22.20;53.70
4757;DHT22;2392;52.578;13.426;2023-05-01T13:00:46;22.20;53.90
4757;DHT22;2392;52.578;13.426;2023-05-01T13:03:14;22.10;52.90
4757;DHT22;2392;52.578;13.426;2023-05-01T13:05:53;22.10;54.10
4757;DHT22;2392;52.578;13.426;2023-05-01T13:08:30;22.00;54.30
4757;DHT22;2392;52.578;13.426;2023-05-01T13:10:59;21.80;53.10
4757;DHT22;2392;52.578;13.426;2023-05-01T13:13:28;21.80;53.80
4757;DHT22;2392;52.578;13.426;2023-05-01T13:16:06;21.80;54.10
4757;DHT22;2392;52.578;13.426;2023-05-01T13:18:42;21.70;54.40
4757;DHT22;2392;52.578;13.426;2023-05-01T13:21:12;21.90;55.10
4757;DHT22;2392;52.578;13.426;2023-05-01T13:23:41;22.00;54.20
4757;DHT22;2392;52.578;13.426;2023-05-01T13:26:09;22.00;54.90
4757;DHT22;2392;52.578;13.426;2023-05-01T13:28:42;21.90;54.10
4757;DHT22;2392;52.578;13.426;2023-05-01T13:31:11;21.80;53.90
4757;DHT22;2392;52.578;13.426;2023-05-01T13:33:39;21.80;54.00
4757;DHT22;2392;52.578;13.426;2023-05-01T13:36:08;21.90;55.30
4757;DHT22;2392;52.578;13.426;2023-05-01T13:38:40;22.00;55.10
4757;DHT22;2392;52.578;13.426;2023-05-01T13:41:15;22.20;56.00
4757;DHT22;2392;52.578;13.426;2023-05-01T13:43:44;22.40;54.50
4757;DHT22;2392;52.578;13.426;2023-05-01T13:46:13;22.60;55.20
4757;DHT22;2392;52.578;13.426;2023-05-01T13:48:41;22.80;55.40
4757;DHT22;2392;52.578;13.426;2023-05-01T13:51:07;22.90;54.40
4757;DHT22;2392;52.578;13.426;2023-05-01T13:53:35;23.10;55.10
4757;DHT22;2392;52.578;13.426;2023-05-01T13:56:04;23.00;54.60
4757;DHT22;2392;52.578;13.426;2023-05-01T13:58:34;23.00;55.90
4757;DHT22;2392;52.578;13.426;2023-05-01T14:01:01;22.80;54.20
4757;DHT22;2392;52.578;13.426;2023-05-01T14:03:35;22.40;54.80
4757;DHT22;2392;52.578;13.426;2023-05-01T14:06:08;22.40;55.30
4757;DHT22;2392;52.578;13.426;2023-05-01T14:08:38;22.30;56.10
4757;DHT22;2392;52.578;13.426;2023-05-01T14:11:08;22.40;57.00
4757;DHT22;2392;52.578;13.426;2023-05-01T14:13:39;22.70;57.00
4757;DHT22;2392;52.578;13.426;2023-05-01T14:16:09;22.70;53.50
4757;DHT22;2392;52.578;13.426;2023-05-01T14:18:43;22.70;54.00
4757;DHT22;2392;52.578;13.426;2023-05-01T14:21:10;22.80;54.00
4757;DHT22;2392;52.578;13.426;2023-05-01T14:23:38;23.20;53.90
4757;DHT22;2392;52.578;13.426;2023-05-01T14:26:08;23.30;54.50
4757;DHT22;2392;52.578;13.426;2023-05-01T14:28:40;23.50;54.10
4757;DHT22;2392;52.578;13.426;2023-05-01T14:31:08;23.30;55.00
4757;DHT22;2392;52.578;13.426;2023-05-01T14:33:40;23.10;54.30
4757;DHT22;2392;52.578;13.426;2023-05-01T14:36:08;23.00;53.80
4757;DHT22;2392;52.578;13.426;2023-05-01T14:38:35;23.10;54.50
4757;DHT22;2392;52.578;13.426;2023-05-01T14:41:04;23.20;54.80
4757;DHT22;2392;52.578;13.426;2023-05-01T14:43:33;23.40;53.70
4757;DHT22;2392;52.578;13.426;2023-05-01T14:46:00;23.60;54.00
4757;DHT22;2392;52.578;13.426;2023-05-01T14:48:33;23.80;53.60
4757;DHT22;2392;52.578;13.426;2023-05-01T14:51:01;23.90;52.10
4757;DHT22;2392;52.578;13.426;2023-05-01T14:53:31;24.10;52.60
4757;DHT22;2392;52.578;13.426;2023-05-01T14:55:58;24.20;52.40
4757;DHT22;2392;52.578;13.426;2023-05-01T14:58:25;24.20;53.70
4757;DHT22;2392;52.578;13.426;2023-05-01T15:00:53;24.10;52.50
4757;DHT22;2392;52.578;13.426;2023-05-01T15:03:21;23.80;51.40
4757;DHT22;2392;52.578;13.426;2023-05-01T15:05:51;23.60;52.30
4757;DHT22;2392;52.578;13.426;2023-05-01T15:08:18;23.20;51.90
4757;DHT22;2392;52.578;13.426;2023-05-01T15:10:45;22.90;52.00
4757;DHT22;2392;52.578;13.426;2023-05-01T15:13:12;23.00;52.60
4757;DHT22;2392;52.578;13.426;2023-05-01T15:15:39;22.90;53.60
4757;DHT22;2392;52.578;13.426;2023-05-01T15:18:07;22.80;53.40
4757;DHT22;2392;52.578;13.426;2023-05-01T15:20:34;22.70;54.70
4757;DHT22;2392;52.578;13.426;2023-05-01T15:23:02;22.60;54.40
4757;DHT22;2392;52.578;13.426;2023-05-01T15:25:29;22.40;53.80
4757;DHT22;2392;52.578;13.426;2023-05-01T15:27:56;22.20;54.60
4757;DHT22;2392;52.578;13.426;2023-05-01T15:30:23;22.00;54.80
4757;DHT22;2392;52.578;13.426;2023-05-01T15:32:49;21.80;55.90
4757;DHT22;2392;52.578;13.426;2023-05-01T15:35:18;21.60;54.50
4757;DHT22;2392;52.578;13.426;2023-05-01T15:37:46;21.50;55.40
4757;DHT22;2392;52.578;13.426;2023-05-01T15:40:13;21.50;55.80
4757;DHT22;2392;52.578;13.426;2023-05-01T15:42:40;21.50;57.20
4757;DHT22;2392;52.578;13.426;2023-05-01T15:45:08;21.50;54.90
4757;DHT22;2392;52.578;13.426;2023-05-01T15:47:38;21.50;55.40
4757;DHT22;2392;52.578;13.426;2023-05-01T15:50:08;21.50;55.20
4757;DHT22;2392;52.578;13.426;2023-05-01T15:52:36;21.50;56.00
4757;DHT22;2392;52.578;13.426;2023-05-01T15:55:04;21.50;55.50
4757;DHT22;2392;52.578;13.426;2023-05-01T15:57:33;21.60;56.10
4757;DHT22;2392;52.578;13.426;2023-05-01T16:00:01;21.50;55.80
4757;DHT22;2392;52.578;13.426;2023-05-01T16:02:30;21.50;57.10
4757;DHT22;2392;52.578;13.426;2023-05-01T16:04:57;21.30;56.10
4757;DHT22;2392;52.578;13.426;2023-05-01T16:07:24;21.10;56.30
4757;DHT22;2392;52.578;13.426;2023-05-01T16:09:55;20.90;56.70
4757;DHT22;2392;52.578;13.426;2023-05-01T16:12:22;20.80;56.60
4757;DHT22;2392;52.578;13.426;2023-05-01T16:14:49;20.70;56.80